MSC Talia F — CQIH9 — position and weather

sailwx.info

Track history (hours):
 
Tides and Currents Weather Stations Pressure Air Temp Water Temp Dewpoint Dewpoint Depression Visibility Wind Speed Wind Dir Waves Ship Positions

MSC Talia F

Last reported at 2017-Oct-20 22:54 UTC. Time now 2017-Oct-23 06:00 UTC.
Position N 39°04' E 023°27'.

Length 139 m; draft 7.2 m.

Type: Ship (hazmat cat A). MMSI: 255805965.

Date/timePositionNaut miles runAvg speedWind from/ knotsBaromVisibWave heightAir tempDewpointWater temp
2017-Oct-20 22:54N 39°04' E 023°27'4310.7
2017-Oct-20 18:52N 38°43' E 024°17'70 7.4
2017-Oct-20 09:21N 37°37' E 023°48'411.1
2017-Oct-20 09:00N 37°38' E 023°43'611.3
2017-Oct-20 08:30N 37°43' E 023°40'510.8
2017-Oct-20 08:00N 37°48' E 023°37'510.8
2017-Oct-20 07:30N 37°53' E 023°37'4 7.9
2017-Oct-20 07:00N 37°57' E 023°36'0 0.1
2017-Oct-20 06:28N 37°57' E 023°36'0 0.0
2017-Oct-20 05:58N 37°57' E 023°36'0 0.0
2017-Oct-20 05:28N 37°57' E 023°36'0 0.0
2017-Oct-20 04:58N 37°57' E 023°36'0 0.0
2017-Oct-20 04:28N 37°57' E 023°36'0 0.0
2017-Oct-20 03:58N 37°57' E 023°36'0 0.0
2017-Oct-20 03:30N 37°57' E 023°36'0 0.0
2017-Oct-20 03:00N 37°57' E 023°36'0 0.0
2017-Oct-20 02:30N 37°57' E 023°36'0 0.0
2017-Oct-20 02:00N 37°57' E 023°36'0 0.0
2017-Oct-20 01:30N 37°57' E 023°36'0 0.0
2017-Oct-20 01:00N 37°57' E 023°36'0 0.0
2017-Oct-20 00:30N 37°57' E 023°36'0 0.0
2017-Oct-19 23:58N 37°57' E 023°36'0 0.0
2017-Oct-19 23:30N 37°57' E 023°36'0 0.0
2017-Oct-19 23:00N 37°57' E 023°36'0 0.0
2017-Oct-19 22:30N 37°57' E 023°36'0 0.0
2017-Oct-19 22:00N 37°57' E 023°36'0 0.0
2017-Oct-19 21:30N 37°57' E 023°36'0 0.0
2017-Oct-19 21:00N 37°57' E 023°36'0 0.0
2017-Oct-19 20:30N 37°57' E 023°36'0 0.0
2017-Oct-19 20:00N 37°57' E 023°36'0 0.0
2017-Oct-19 19:30N 37°57' E 023°36'0 0.0
2017-Oct-19 19:00N 37°57' E 023°36'0 0.0
2017-Oct-19 18:27N 37°57' E 023°36'0 0.0
2017-Oct-19 18:00N 37°57' E 023°36'0 0.0
2017-Oct-19 17:30N 37°57' E 023°36'0 0.0
2017-Oct-19 17:00N 37°57' E 023°36'0 0.0
2017-Oct-19 16:30N 37°57' E 023°36'0 0.0
2017-Oct-19 16:00N 37°57' E 023°36'0 0.0
2017-Oct-19 15:30N 37°57' E 023°36'0 0.0
2017-Oct-19 15:00N 37°57' E 023°36'0 0.0
2017-Oct-19 14:29N 37°57' E 023°36'0 0.0
2017-Oct-19 13:59N 37°57' E 023°36'0 0.0
2017-Oct-19 13:31N 37°57' E 023°36'2 3.8
2017-Oct-19 13:01N 37°55' E 023°36'3 5.1
2017-Oct-19 12:30N 37°53' E 023°36'2 5.0
2017-Oct-19 12:01N 37°51' E 023°38'3 5.4
2017-Oct-19 11:31N 37°49' E 023°40'5 9.9
2017-Oct-19 11:00N 37°45' E 023°43'510.7
2017-Oct-19 10:31N 37°40' E 023°46'610.9
2017-Oct-19 10:00N 37°37' E 023°52'109 2.9
2017-Oct-17 20:44N 39°23' E 024°27'815.0
2017-Oct-17 20:12N 39°29' E 024°21'314.7
2017-Oct-17 19:59N 39°32' E 024°18'  
2017-Oct-15 06:13N 39°40' E 023°59'312.3
2017-Oct-15 06:00N 39°39' E 024°02'612.1
2017-Oct-15 05:30N 39°36' E 024°09'120 8.7
2017-Oct-14 15:48N 37°38' E 023°45'412.2
2017-Oct-14 15:30N 37°41' E 023°42'612.6
2017-Oct-14 15:00N 37°47' E 023°38'612.1
2017-Oct-14 14:30N 37°52' E 023°37'4 8.4
2017-Oct-14 14:00N 37°57' E 023°36'1 1.6
2017-Oct-14 13:29N 37°57' E 023°36'0 0.0
2017-Oct-14 12:59N 37°57' E 023°36'0 0.0
2017-Oct-14 12:29N 37°57' E 023°36'0 0.0
2017-Oct-14 11:59N 37°57' E 023°36'0 0.0
2017-Oct-14 11:29N 37°57' E 023°36'0 0.0
2017-Oct-14 10:59N 37°57' E 023°36'0 0.0
2017-Oct-14 10:29N 37°57' E 023°36'0 0.0
2017-Oct-14 09:59N 37°57' E 023°36'0 0.0
2017-Oct-14 09:29N 37°57' E 023°36'0 0.0
2017-Oct-14 08:59N 37°57' E 023°36'0 0.0
2017-Oct-14 08:28N 37°57' E 023°36'0 0.0
2017-Oct-14 07:58N 37°57' E 023°36'0 0.0
2017-Oct-14 07:28N 37°57' E 023°36'0 0.0
2017-Oct-14 06:58N 37°57' E 023°36'0 0.0
2017-Oct-14 06:28N 37°57' E 023°36'0 0.0
2017-Oct-14 05:58N 37°57' E 023°36'0 0.0
2017-Oct-14 05:28N 37°57' E 023°36'0 0.0
2017-Oct-14 04:58N 37°57' E 023°36'0 0.0
2017-Oct-14 04:28N 37°57' E 023°36'0 0.0
2017-Oct-14 03:55N 37°57' E 023°36'0 0.0
2017-Oct-14 03:25N 37°57' E 023°36'0 0.0
2017-Oct-14 02:58N 37°57' E 023°36'0 0.0
2017-Oct-14 02:28N 37°57' E 023°36'0 0.0
2017-Oct-14 01:58N 37°57' E 023°36'0 0.0
2017-Oct-14 01:26N 37°57' E 023°36'0 0.0
2017-Oct-14 00:58N 37°57' E 023°36'0 0.0
2017-Oct-14 00:29N 37°57' E 023°36'0 0.0
2017-Oct-13 23:58N 37°57' E 023°36'0 0.0
2017-Oct-13 23:28N 37°57' E 023°36'0 0.0
2017-Oct-13 22:58N 37°57' E 023°36'0 0.0
2017-Oct-13 22:28N 37°57' E 023°36'0 0.0
2017-Oct-13 21:58N 37°57' E 023°36'0 0.0
2017-Oct-13 21:28N 37°57' E 023°36'0 0.0
2017-Oct-13 20:58N 37°57' E 023°36'0 0.0
2017-Oct-13 20:28N 37°57' E 023°36'0 0.0
2017-Oct-13 19:58N 37°57' E 023°36'0 0.0
2017-Oct-13 19:28N 37°57' E 023°36'0 0.0
2017-Oct-13 18:58N 37°57' E 023°36'0 0.0
2017-Oct-13 18:28N 37°57' E 023°36'2 3.9
2017-Oct-13 18:00N 37°56' E 023°36'0 0.8
2017-Oct-13 17:31N 37°55' E 023°36'1 2.2
2017-Oct-13 17:01N 37°54' E 023°36'0 0.4
2017-Oct-13 16:30N 37°54' E 023°36'0 0.8
2017-Oct-13 16:00N 37°54' E 023°36'0 0.8
2017-Oct-13 15:30N 37°54' E 023°36'0 0.7
2017-Oct-13 15:01N 37°54' E 023°36'1 1.0
2017-Oct-13 14:30N 37°54' E 023°37'4 8.1
2017-Oct-13 14:00N 37°50' E 023°39'5 9.6
2017-Oct-13 13:30N 37°46' E 023°42'713.3
2017-Oct-13 13:00N 37°40' E 023°46'114 3.5
2017-Oct-12 04:07N 39°21' E 024°53'212.6
2017-Oct-12 03:57N 39°22' E 024°51'  
Track history (hours):
 
Tides and Currents Weather Stations Pressure Air Temp Water Temp Dewpoint Dewpoint Depression Visibility Wind Speed Wind Dir Waves Ship Positions

MSC Talia F

Last reported at 2017-Oct-20 22:54 UTC. Time now 2017-Oct-23 06:00 UTC.
Position N 39°04' E 023°27'.

Length 139 m; draft 7.2 m.

Type: Ship (hazmat cat A). MMSI: 255805965.

Date/timePositionNaut miles runAvg speedWind from/ knotsBaromVisibWave heightAir tempDewpointWater temp
2017-Oct-20 22:54N 39°04' E 023°27'4310.7
2017-Oct-20 18:52N 38°43' E 024°17'70 7.4
2017-Oct-20 09:21N 37°37' E 023°48'411.1
2017-Oct-20 09:00N 37°38' E 023°43'611.3
2017-Oct-20 08:30N 37°43' E 023°40'510.8
2017-Oct-20 08:00N 37°48' E 023°37'510.8
2017-Oct-20 07:30N 37°53' E 023°37'4 7.9
2017-Oct-20 07:00N 37°57' E 023°36'0 0.1
2017-Oct-20 06:28N 37°57' E 023°36'0 0.0
2017-Oct-20 05:58N 37°57' E 023°36'0 0.0
2017-Oct-20 05:28N 37°57' E 023°36'0 0.0
2017-Oct-20 04:58N 37°57' E 023°36'0 0.0
2017-Oct-20 04:28N 37°57' E 023°36'0 0.0
2017-Oct-20 03:58N 37°57' E 023°36'0 0.0
2017-Oct-20 03:30N 37°57' E 023°36'0 0.0
2017-Oct-20 03:00N 37°57' E 023°36'0 0.0
2017-Oct-20 02:30N 37°57' E 023°36'0 0.0
2017-Oct-20 02:00N 37°57' E 023°36'0 0.0
2017-Oct-20 01:30N 37°57' E 023°36'0 0.0
2017-Oct-20 01:00N 37°57' E 023°36'0 0.0
2017-Oct-20 00:30N 37°57' E 023°36'0 0.0
2017-Oct-19 23:58N 37°57' E 023°36'0 0.0
2017-Oct-19 23:30N 37°57' E 023°36'0 0.0
2017-Oct-19 23:00N 37°57' E 023°36'0 0.0
2017-Oct-19 22:30N 37°57' E 023°36'0 0.0
2017-Oct-19 22:00N 37°57' E 023°36'0 0.0
2017-Oct-19 21:30N 37°57' E 023°36'0 0.0
2017-Oct-19 21:00N 37°57' E 023°36'0 0.0
2017-Oct-19 20:30N 37°57' E 023°36'0 0.0
2017-Oct-19 20:00N 37°57' E 023°36'0 0.0
2017-Oct-19 19:30N 37°57' E 023°36'0 0.0
2017-Oct-19 19:00N 37°57' E 023°36'0 0.0
2017-Oct-19 18:27N 37°57' E 023°36'0 0.0
2017-Oct-19 18:00N 37°57' E 023°36'0 0.0
2017-Oct-19 17:30N 37°57' E 023°36'0 0.0
2017-Oct-19 17:00N 37°57' E 023°36'0 0.0
2017-Oct-19 16:30N 37°57' E 023°36'0 0.0
2017-Oct-19 16:00N 37°57' E 023°36'0 0.0
2017-Oct-19 15:30N 37°57' E 023°36'0 0.0
2017-Oct-19 15:00N 37°57' E 023°36'0 0.0
2017-Oct-19 14:29N 37°57' E 023°36'0 0.0
2017-Oct-19 13:59N 37°57' E 023°36'0 0.0
2017-Oct-19 13:31N 37°57' E 023°36'2 3.8
2017-Oct-19 13:01N 37°55' E 023°36'3 5.1
2017-Oct-19 12:30N 37°53' E 023°36'2 5.0
2017-Oct-19 12:01N 37°51' E 023°38'3 5.4
2017-Oct-19 11:31N 37°49' E 023°40'5 9.9
2017-Oct-19 11:00N 37°45' E 023°43'510.7
2017-Oct-19 10:31N 37°40' E 023°46'610.9
2017-Oct-19 10:00N 37°37' E 023°52'109 2.9
2017-Oct-17 20:44N 39°23' E 024°27'815.0
2017-Oct-17 20:12N 39°29' E 024°21'314.7
2017-Oct-17 19:59N 39°32' E 024°18'  
2017-Oct-15 06:13N 39°40' E 023°59'312.3
2017-Oct-15 06:00N 39°39' E 024°02'612.1
2017-Oct-15 05:30N 39°36' E 024°09'120 8.7
2017-Oct-14 15:48N 37°38' E 023°45'412.2
2017-Oct-14 15:30N 37°41' E 023°42'612.6
2017-Oct-14 15:00N 37°47' E 023°38'612.1
2017-Oct-14 14:30N 37°52' E 023°37'4 8.4
2017-Oct-14 14:00N 37°57' E 023°36'1 1.6
2017-Oct-14 13:29N 37°57' E 023°36'0 0.0
2017-Oct-14 12:59N 37°57' E 023°36'0 0.0
2017-Oct-14 12:29N 37°57' E 023°36'0 0.0
2017-Oct-14 11:59N 37°57' E 023°36'0 0.0
2017-Oct-14 11:29N 37°57' E 023°36'0 0.0
2017-Oct-14 10:59N 37°57' E 023°36'0 0.0
2017-Oct-14 10:29N 37°57' E 023°36'0 0.0
2017-Oct-14 09:59N 37°57' E 023°36'0 0.0
2017-Oct-14 09:29N 37°57' E 023°36'0 0.0
2017-Oct-14 08:59N 37°57' E 023°36'0 0.0
2017-Oct-14 08:28N 37°57' E 023°36'0 0.0
2017-Oct-14 07:58N 37°57' E 023°36'0 0.0
2017-Oct-14 07:28N 37°57' E 023°36'0 0.0
2017-Oct-14 06:58N 37°57' E 023°36'0 0.0
2017-Oct-14 06:28N 37°57' E 023°36'0 0.0
2017-Oct-14 05:58N 37°57' E 023°36'0 0.0
2017-Oct-14 05:28N 37°57' E 023°36'0 0.0
2017-Oct-14 04:58N 37°57' E 023°36'0 0.0
2017-Oct-14 04:28N 37°57' E 023°36'0 0.0
2017-Oct-14 03:55N 37°57' E 023°36'0 0.0
2017-Oct-14 03:25N 37°57' E 023°36'0 0.0
2017-Oct-14 02:58N 37°57' E 023°36'0 0.0
2017-Oct-14 02:28N 37°57' E 023°36'0 0.0
2017-Oct-14 01:58N 37°57' E 023°36'0 0.0
2017-Oct-14 01:26N 37°57' E 023°36'0 0.0
2017-Oct-14 00:58N 37°57' E 023°36'0 0.0
2017-Oct-14 00:29N 37°57' E 023°36'0 0.0
2017-Oct-13 23:58N 37°57' E 023°36'0 0.0
2017-Oct-13 23:28N 37°57' E 023°36'0 0.0
2017-Oct-13 22:58N 37°57' E 023°36'0 0.0
2017-Oct-13 22:28N 37°57' E 023°36'0 0.0
2017-Oct-13 21:58N 37°57' E 023°36'0 0.0
2017-Oct-13 21:28N 37°57' E 023°36'0 0.0
2017-Oct-13 20:58N 37°57' E 023°36'0 0.0
2017-Oct-13 20:28N 37°57' E 023°36'0 0.0
2017-Oct-13 19:58N 37°57' E 023°36'0 0.0
2017-Oct-13 19:28N 37°57' E 023°36'0 0.0
2017-Oct-13 18:58N 37°57' E 023°36'0 0.0
2017-Oct-13 18:28N 37°57' E 023°36'2 3.9
2017-Oct-13 18:00N 37°56' E 023°36'0 0.8
2017-Oct-13 17:31N 37°55' E 023°36'1 2.2
2017-Oct-13 17:01N 37°54' E 023°36'0 0.4
2017-Oct-13 16:30N 37°54' E 023°36'0 0.8
2017-Oct-13 16:00N 37°54' E 023°36'0 0.8
2017-Oct-13 15:30N 37°54' E 023°36'0 0.7
2017-Oct-13 15:01N 37°54' E 023°36'1 1.0
2017-Oct-13 14:30N 37°54' E 023°37'4 8.1
2017-Oct-13 14:00N 37°50' E 023°39'5 9.6
2017-Oct-13 13:30N 37°46' E 023°42'713.3
2017-Oct-13 13:00N 37°40' E 023°46'114 3.5
2017-Oct-12 04:07N 39°21' E 024°53'212.6
2017-Oct-12 03:57N 39°22' E 024°51'  

Dump ship's entire track history